createdAt,value
2022-09-23T00:01:19.191Z,4.22
2022-09-23T00:03:47.494Z,5.22
2022-09-23T00:06:16.326Z,4.50
2022-09-23T00:08:44.226Z,5.30
2022-09-23T00:11:17.015Z,6.93
2022-09-23T00:13:46.288Z,6.50
2022-09-23T00:16:16.089Z,7.68
2022-09-23T00:18:44.037Z,6.05
2022-09-23T00:21:13.890Z,5.45
2022-09-23T00:23:43.036Z,4.13
2022-09-23T00:26:13.049Z,5.63
2022-09-23T00:28:40.753Z,3.50
2022-09-23T00:31:10.831Z,5.80
2022-09-23T00:33:38.556Z,6.53
2022-09-23T00:36:08.642Z,3.85
2022-09-23T00:38:35.687Z,3.97
2022-09-23T00:41:17.603Z,4.40
2022-09-23T00:43:52.905Z,3.10
2022-09-23T00:46:32.629Z,4.05
2022-09-23T00:49:29.211Z,3.63
2022-09-23T00:52:06.773Z,3.92
2022-09-23T00:54:34.068Z,4.47
2022-09-23T00:57:03.919Z,4.75
2022-09-23T00:59:32.820Z,3.92
2022-09-23T01:02:02.108Z,5.65
2022-09-23T01:04:30.504Z,4.57
2022-09-23T01:06:57.625Z,5.57
2022-09-23T01:09:25.374Z,6.47
2022-09-23T01:12:27.953Z,4.97
2022-09-23T01:15:42.890Z,9.55
2022-09-23T01:18:16.001Z,5.18
2022-09-23T01:21:14.500Z,6.80
2022-09-23T01:24:07.904Z,7.55
2022-09-23T01:26:51.911Z,8.18
2022-09-23T01:30:01.405Z,10.75
2022-09-23T01:32:37.275Z,6.00
2022-09-23T01:35:38.582Z,6.72
2022-09-23T01:38:20.312Z,6.30
2022-09-23T01:41:03.441Z,6.13
2022-09-23T01:43:40.070Z,9.45
2022-09-23T01:46:18.724Z,9.52
2022-09-23T01:48:54.213Z,6.78
2022-09-23T01:51:26.752Z,7.82
2022-09-23T01:54:07.188Z,8.70
2022-09-23T01:56:42.399Z,7.68
2022-09-23T01:59:16.569Z,6.53
2022-09-23T02:01:53.722Z,8.20
2022-09-23T02:04:40.916Z,5.88
2022-09-23T02:07:37.868Z,6.63
2022-09-23T02:10:25.163Z,5.57
2022-09-23T02:12:57.370Z,6.70
2022-09-23T02:15:31.583Z,8.65
2022-09-23T02:18:08.842Z,10.50
2022-09-23T02:20:41.367Z,5.22
2022-09-23T02:23:19.210Z,5.30
2022-09-23T02:26:07.466Z,8.18
2022-09-23T02:28:34.509Z,4.03
2022-09-23T02:31:21.752Z,6.53
2022-09-23T02:34:27.790Z,5.05
2022-09-23T02:37:22.942Z,6.43
2022-09-23T02:40:03.013Z,7.30
2022-09-23T02:43:01.024Z,5.22
2022-09-23T02:45:28.383Z,3.97
2022-09-23T02:48:04.493Z,5.75
2022-09-23T02:50:33.909Z,6.85
2022-09-23T02:53:01.489Z,5.50
2022-09-23T02:55:32.463Z,7.25
2022-09-23T02:58:04.178Z,6.40
2022-09-23T03:00:56.873Z,5.28
2022-09-23T03:06:28.768Z,5.35
2022-09-23T03:09:04.435Z,4.65
2022-09-23T03:11:35.358Z,3.42
2022-09-23T03:14:44.655Z,4.53
2022-09-23T03:17:20.258Z,6.10
2022-09-23T03:20:02.613Z,5.30
2022-09-23T03:22:39.402Z,5.82
2022-09-23T03:25:12.211Z,4.13
2022-09-23T03:27:42.501Z,7.13
2022-09-23T03:30:10.898Z,4.25
2022-09-23T03:32:39.637Z,3.80
2022-09-23T03:35:07.444Z,3.78
2022-09-23T03:37:56.637Z,3.88
2022-09-23T03:40:26.839Z,4.55
2022-09-23T03:42:56.522Z,4.50
2022-09-23T03:45:28.089Z,4.10
2022-09-23T03:47:55.388Z,6.80
2022-09-23T03:50:22.641Z,4.47
2022-09-23T03:52:50.539Z,6.47
2022-09-23T03:55:19.568Z,4.63
2022-09-23T03:57:46.835Z,4.38
2022-09-23T04:00:15.003Z,4.43
2022-09-23T04:02:42.448Z,5.10
2022-09-23T04:05:10.741Z,5.28
2022-09-23T04:07:37.879Z,6.90
2022-09-23T04:10:06.458Z,3.45
2022-09-23T04:12:33.596Z,3.72
2022-09-23T04:15:00.675Z,4.55
2022-09-23T04:17:27.965Z,3.22
2022-09-23T04:19:55.070Z,4.10
2022-09-23T04:22:22.447Z,4.20
2022-09-23T04:24:49.641Z,3.55
2022-09-23T04:27:16.868Z,5.78
2022-09-23T04:29:44.267Z,5.65
2022-09-23T04:32:11.861Z,6.68
2022-09-23T04:34:39.040Z,6.65
2022-09-23T04:37:06.197Z,5.68
2022-09-23T04:39:33.352Z,5.50
2022-09-23T04:42:00.539Z,4.07
2022-09-23T04:44:28.388Z,4.50
2022-09-23T04:46:55.581Z,5.35
2022-09-23T04:49:23.590Z,4.55
2022-09-23T04:51:50.733Z,4.90
2022-09-23T04:54:17.967Z,8.35
2022-09-23T04:56:45.136Z,3.70
2022-09-23T04:59:12.334Z,4.00
2022-09-23T05:01:39.609Z,6.30
2022-09-23T05:04:10.184Z,6.03
2022-09-23T05:06:37.457Z,4.55
2022-09-23T05:09:07.904Z,4.50
2022-09-23T05:11:35.440Z,6.68
2022-09-23T05:14:02.972Z,4.57
2022-09-23T05:16:30.265Z,5.95
2022-09-23T05:18:58.224Z,8.48
2022-09-23T05:21:30.263Z,5.50
2022-09-23T05:24:01.423Z,4.78
2022-09-23T05:26:31.130Z,5.70
2022-09-23T05:28:59.283Z,4.65
2022-09-23T05:31:28.723Z,5.60
2022-09-23T05:34:00.973Z,5.70
2022-09-23T05:36:34.249Z,3.65
2022-09-23T05:39:04.213Z,6.25
2022-09-23T05:41:31.634Z,9.95
2022-09-23T05:43:59.827Z,6.82
2022-09-23T05:46:29.511Z,5.32
2022-09-23T05:49:02.176Z,7.55
2022-09-23T05:51:31.306Z,9.48
2022-09-23T05:53:59.814Z,7.00
2022-09-23T05:56:28.303Z,8.73
2022-09-23T05:58:57.651Z,6.18
2022-09-23T06:01:28.854Z,7.88
2022-09-23T06:03:58.007Z,8.30
2022-09-23T06:06:29.105Z,9.52
2022-09-23T06:08:57.175Z,7.00
2022-09-23T06:11:24.258Z,7.93
2022-09-23T06:13:55.820Z,7.80
2022-09-23T06:16:23.158Z,5.68
2022-09-23T06:18:50.329Z,6.70
2022-09-23T06:21:18.315Z,6.85
2022-09-23T06:23:46.207Z,5.97
2022-09-23T06:26:17.377Z,6.30
2022-09-23T06:28:45.911Z,3.97
2022-09-23T06:31:17.158Z,7.65
2022-09-23T06:33:45.729Z,5.88
2022-09-23T06:36:22.850Z,4.72
2022-09-23T06:38:57.867Z,5.97
2022-09-23T06:41:25.061Z,8.00
2022-09-23T06:43:54.745Z,4.85
2022-09-23T06:46:21.912Z,8.45
2022-09-23T06:48:49.720Z,5.82
2022-09-23T06:51:19.542Z,6.45
2022-09-23T06:53:48.235Z,5.90
2022-09-23T06:56:16.727Z,9.90
2022-09-23T06:58:44.002Z,7.78
2022-09-23T07:01:16.144Z,13.05
2022-09-23T07:03:45.233Z,6.95
2022-09-23T07:06:12.496Z,9.18
2022-09-23T07:08:44.010Z,7.90
2022-09-23T07:11:13.211Z,8.98
2022-09-23T07:13:42.031Z,10.88
2022-09-23T07:16:11.005Z,9.45
2022-09-23T07:18:39.030Z,8.38
2022-09-23T07:21:09.498Z,8.50
2022-09-23T07:23:37.880Z,7.88
2022-09-23T07:26:05.412Z,10.25
2022-09-23T07:28:32.579Z,10.93
2022-09-23T07:31:07.753Z,10.07
2022-09-23T07:33:36.906Z,11.00
2022-09-23T07:36:08.562Z,9.00
2022-09-23T07:38:37.414Z,8.93
2022-09-23T07:41:08.999Z,8.68
2022-09-23T07:43:37.195Z,10.25
2022-09-23T07:46:10.281Z,9.98
2022-09-23T07:48:38.931Z,8.38
2022-09-23T07:51:09.080Z,6.82
2022-09-23T07:53:36.901Z,6.22
2022-09-23T07:56:06.454Z,8.80
2022-09-23T07:58:35.036Z,10.18
2022-09-23T08:01:07.866Z,8.35
2022-09-23T08:03:36.202Z,5.85
2022-09-23T08:06:12.081Z,7.53
2022-09-23T08:08:43.582Z,7.93
2022-09-23T08:11:13.324Z,8.07
2022-09-23T08:13:41.432Z,6.32
2022-09-23T08:16:09.609Z,5.70
2022-09-23T08:18:36.877Z,7.40
2022-09-23T08:21:04.419Z,6.70
2022-09-23T08:23:33.983Z,5.70
2022-09-23T08:26:03.052Z,5.82
2022-09-23T08:28:31.251Z,5.32
2022-09-23T08:30:58.295Z,6.53
2022-09-23T08:33:25.834Z,24.52
2022-09-23T08:35:58.927Z,5.25
2022-09-23T08:38:26.141Z,5.30
2022-09-23T08:41:04.490Z,5.10
2022-09-23T08:43:34.150Z,7.30
2022-09-23T08:46:05.299Z,5.40
2022-09-23T08:48:47.656Z,6.50
2022-09-23T08:51:21.985Z,6.78
2022-09-23T08:53:49.395Z,5.97
2022-09-23T08:56:18.816Z,6.25
2022-09-23T08:59:04.062Z,6.72
2022-09-23T09:01:43.219Z,4.57
2022-09-23T09:04:38.914Z,6.32
2022-09-23T09:07:35.372Z,4.97
2022-09-23T09:10:16.906Z,7.03
2022-09-23T09:13:02.994Z,5.85
2022-09-23T09:15:30.301Z,6.50
2022-09-23T09:18:03.821Z,7.18
2022-09-23T09:20:57.075Z,6.15
2022-09-23T09:23:49.744Z,5.20
2022-09-23T09:28:48.523Z,10.45
2022-09-23T09:31:53.972Z,15.25
2022-09-23T09:34:46.028Z,20.77
2022-09-23T09:37:19.774Z,19.20
2022-09-23T09:39:46.891Z,19.95
2022-09-23T09:42:35.170Z,27.23
2022-09-23T09:45:04.523Z,22.55
2022-09-23T09:47:31.658Z,18.98
2022-09-23T09:50:24.744Z,21.75
2022-09-23T09:52:56.236Z,25.23
2022-09-23T09:55:28.818Z,20.55
2022-09-23T09:58:04.205Z,22.20
2022-09-23T10:00:31.285Z,26.38
2022-09-23T10:03:21.908Z,26.15
2022-09-23T10:05:52.394Z,19.60
2022-09-23T10:08:37.971Z,20.42
2022-09-23T10:11:17.017Z,24.80
2022-09-23T10:14:19.021Z,21.35
2022-09-23T10:16:49.205Z,21.47
2022-09-23T10:19:27.416Z,19.13
2022-09-23T10:21:59.909Z,21.33
2022-09-23T10:24:30.558Z,23.70
2022-09-23T10:27:08.008Z,21.73
2022-09-23T10:29:50.805Z,21.60
2022-09-23T10:32:31.314Z,16.23
2022-09-23T10:35:14.171Z,21.02
2022-09-23T10:37:50.521Z,21.52
2022-09-23T10:40:45.317Z,17.05
2022-09-23T10:44:07.206Z,16.73
2022-09-23T10:46:42.201Z,20.27
2022-09-23T10:49:40.582Z,17.25
2022-09-23T10:52:25.885Z,16.17
2022-09-23T10:54:58.971Z,20.55
2022-09-23T10:57:45.019Z,19.80
2022-09-23T11:00:34.683Z,14.23
2022-09-23T11:03:20.779Z,17.08
2022-09-23T11:06:22.333Z,15.75
2022-09-23T11:09:18.332Z,14.32
2022-09-23T11:12:04.068Z,13.05
2022-09-23T11:15:01.706Z,13.43
2022-09-23T11:18:00.807Z,12.10
2022-09-23T11:20:48.174Z,11.65
2022-09-23T11:23:48.224Z,10.80
2022-09-23T11:26:32.263Z,12.25
2022-09-23T11:29:22.334Z,14.15
2022-09-23T11:31:49.643Z,10.13
2022-09-23T11:34:31.780Z,9.68
2022-09-23T11:37:31.411Z,10.00
2022-09-23T11:40:15.712Z,9.55
2022-09-23T11:42:58.146Z,8.82
2022-09-23T11:45:31.669Z,8.60
2022-09-23T11:48:04.233Z,8.90
2022-09-23T11:50:40.474Z,7.80
2022-09-23T11:53:12.256Z,7.40
2022-09-23T11:55:58.314Z,7.40
2022-09-23T11:58:34.983Z,6.38
2022-09-23T12:01:09.536Z,5.43
2022-09-23T12:04:08.937Z,4.32
2022-09-23T12:06:45.255Z,5.15
2022-09-23T12:09:54.064Z,4.47
2022-09-23T12:12:27.215Z,5.70
2022-09-23T12:15:00.486Z,4.85
2022-09-23T12:17:49.794Z,8.57
2022-09-23T12:20:49.750Z,5.05
2022-09-23T12:23:39.946Z,5.25
2022-09-23T12:26:17.818Z,5.63
2022-09-23T12:28:49.050Z,5.30
2022-09-23T12:31:19.336Z,5.18
2022-09-23T12:33:54.404Z,6.90
2022-09-23T12:36:35.581Z,5.22
2022-09-23T12:39:04.986Z,6.38
2022-09-23T12:41:38.133Z,7.55
2022-09-23T12:44:12.890Z,5.78
2022-09-23T12:46:45.048Z,5.93
2022-09-23T12:49:36.285Z,6.68
2022-09-23T12:52:12.825Z,7.28
2022-09-23T12:54:41.822Z,8.60
2022-09-23T12:57:31.435Z,7.75
2022-09-23T13:00:13.434Z,11.02
2022-09-23T13:02:47.853Z,9.77
2022-09-23T13:05:36.892Z,9.30
2022-09-23T13:08:17.415Z,7.93
2022-09-23T13:10:52.521Z,6.68
2022-09-23T13:13:31.723Z,6.60
2022-09-23T13:16:19.693Z,6.55
2022-09-23T13:18:54.677Z,5.90
2022-09-23T13:21:43.417Z,7.13
2022-09-23T13:24:13.653Z,5.07
2022-09-23T13:26:53.304Z,5.35
2022-09-23T13:30:00.255Z,5.38
2022-09-23T13:32:35.977Z,5.07
2022-09-23T13:35:14.644Z,5.57
2022-09-23T13:37:47.697Z,4.70
2022-09-23T13:40:21.071Z,8.25
2022-09-23T13:42:53.688Z,5.00
2022-09-23T13:45:23.460Z,4.65
2022-09-23T13:47:53.088Z,3.45
2022-09-23T13:50:23.502Z,4.07
2022-09-23T13:53:11.505Z,3.40
2022-09-23T13:55:39.435Z,4.20
2022-09-23T13:58:21.939Z,3.95
2022-09-23T14:03:17.743Z,4.10
2022-09-23T14:05:46.075Z,4.28
2022-09-23T14:08:13.563Z,6.03
2022-09-23T14:10:45.065Z,4.95
2022-09-23T14:13:26.074Z,5.17
2022-09-23T14:15:56.296Z,4.55
2022-09-23T14:18:38.411Z,5.72
2022-09-23T14:21:25.879Z,6.32
2022-09-23T14:23:53.074Z,5.95
2022-09-23T14:26:21.242Z,5.45
2022-09-23T14:28:48.815Z,5.93
2022-09-23T14:31:15.998Z,6.53
2022-09-23T14:33:43.557Z,6.93
2022-09-23T14:36:36.780Z,7.68
2022-09-23T14:39:10.206Z,6.40
2022-09-23T14:41:40.643Z,9.73
2022-09-23T14:44:18.233Z,8.68
2022-09-23T14:46:56.915Z,7.60
2022-09-23T14:49:25.156Z,8.55
2022-09-23T14:52:00.761Z,5.63
2022-09-23T14:54:41.504Z,9.20
2022-09-23T14:57:23.956Z,7.72
2022-09-23T15:02:33.921Z,8.88
2022-09-23T15:05:22.837Z,7.78
2022-09-23T15:07:56.286Z,7.28
2022-09-23T15:10:27.826Z,7.25
2022-09-23T15:13:03.389Z,8.00
2022-09-23T15:15:30.611Z,7.75
2022-09-23T15:18:05.221Z,7.57
2022-09-23T15:20:32.847Z,8.60
2022-09-23T15:23:00.189Z,8.93
2022-09-23T15:25:40.808Z,8.77
2022-09-23T15:28:10.792Z,9.52
2022-09-23T15:30:39.158Z,7.97
2022-09-23T15:33:06.888Z,8.93
2022-09-23T15:35:34.209Z,9.10
2022-09-23T15:38:03.299Z,10.02
2022-09-23T15:40:35.733Z,8.57
2022-09-23T15:43:20.592Z,9.68
2022-09-23T15:45:53.314Z,9.57
2022-09-23T15:48:54.200Z,8.68
2022-09-23T15:51:25.003Z,7.72
2022-09-23T15:53:52.285Z,8.20
2022-09-23T15:56:19.443Z,10.10
2022-09-23T15:58:47.103Z,11.07
2022-09-23T16:01:35.946Z,9.13
2022-09-23T16:04:04.713Z,8.27
2022-09-23T16:06:34.395Z,7.68
2022-09-23T16:09:01.605Z,7.93
2022-09-23T16:11:31.963Z,7.25
2022-09-23T16:14:00.687Z,8.70
2022-09-23T16:16:28.254Z,8.23
2022-09-23T16:18:55.608Z,6.80
2022-09-23T16:21:26.023Z,7.32
2022-09-23T16:23:54.536Z,6.28
2022-09-23T16:26:30.332Z,8.02
2022-09-23T16:28:58.705Z,8.27
2022-09-23T16:31:29.712Z,9.18
2022-09-23T16:33:57.597Z,9.23
2022-09-23T16:36:37.657Z,8.63
2022-09-23T16:39:07.515Z,16.50
2022-09-23T16:41:34.768Z,13.30
2022-09-23T16:44:04.541Z,9.70
2022-09-23T16:46:32.390Z,8.85
2022-09-23T16:49:00.853Z,10.10
2022-09-23T16:51:38.289Z,9.27
2022-09-23T16:54:11.524Z,9.93
2022-09-23T16:56:44.267Z,11.80
2022-09-23T16:59:15.192Z,8.20
2022-09-23T17:02:01.268Z,10.82
2022-09-23T17:04:28.651Z,8.85
2022-09-23T17:06:56.508Z,8.57
2022-09-23T17:09:29.086Z,6.75
2022-09-23T17:12:17.594Z,6.47
2022-09-23T17:14:44.715Z,5.28
2022-09-23T17:17:11.861Z,5.88
2022-09-23T17:19:41.364Z,6.53
2022-09-23T17:22:09.964Z,4.40
2022-09-23T17:24:37.070Z,4.28
2022-09-23T17:27:04.219Z,3.97
2022-09-23T17:29:31.294Z,3.03
2022-09-23T17:31:58.481Z,3.55
2022-09-23T17:34:25.588Z,2.75
2022-09-23T17:36:52.637Z,5.68
2022-09-23T17:39:19.744Z,4.13
2022-09-23T17:41:46.881Z,2.72
2022-09-23T17:44:16.145Z,2.33
2022-09-23T17:46:43.725Z,4.72
2022-09-23T17:49:12.212Z,3.45
2022-09-23T17:51:40.020Z,4.70
2022-09-23T17:54:07.117Z,4.80
2022-09-23T17:56:34.350Z,5.25
2022-09-23T17:59:02.222Z,3.97
2022-09-23T18:01:30.127Z,4.00
2022-09-23T18:03:59.103Z,2.38
2022-09-23T18:06:29.001Z,2.42
2022-09-23T18:08:57.935Z,1.73
2022-09-23T18:11:27.782Z,4.10
2022-09-23T18:13:57.462Z,2.17
2022-09-23T18:16:30.718Z,3.45
2022-09-23T18:19:00.314Z,4.18
2022-09-23T18:21:30.151Z,3.72
2022-09-23T18:24:15.688Z,3.53
2022-09-23T18:26:45.712Z,4.82
2022-09-23T18:29:13.000Z,5.07
2022-09-23T18:31:41.209Z,3.42
2022-09-23T18:34:12.444Z,5.53
2022-09-23T18:36:39.591Z,5.20
2022-09-23T18:39:06.984Z,3.58
2022-09-23T18:41:35.158Z,5.20
2022-09-23T18:44:03.364Z,3.97
2022-09-23T18:46:31.188Z,7.05
2022-09-23T18:49:17.754Z,3.72
2022-09-23T18:51:56.468Z,5.55
2022-09-23T18:54:25.851Z,4.80
2022-09-23T18:56:53.297Z,3.65
2022-09-23T18:59:23.949Z,5.18
2022-09-23T19:01:51.529Z,6.07
2022-09-23T19:04:20.699Z,4.30
2022-09-23T19:06:48.398Z,3.92
2022-09-23T19:09:16.340Z,4.97
2022-09-23T19:11:44.430Z,6.40
2022-09-23T19:14:12.446Z,3.25
2022-09-23T19:16:41.796Z,6.03
2022-09-23T19:19:09.564Z,6.88
2022-09-23T19:21:37.036Z,7.38
2022-09-23T19:24:06.573Z,3.75
2022-09-23T19:26:37.595Z,5.50
2022-09-23T19:29:08.280Z,3.92
2022-09-23T19:31:41.901Z,4.03
2022-09-23T19:34:15.046Z,5.20
2022-09-23T19:36:44.323Z,5.45
2022-09-23T19:39:16.953Z,8.70
2022-09-23T19:41:44.504Z,7.80
2022-09-23T19:44:11.928Z,8.82
2022-09-23T19:46:42.914Z,3.72
2022-09-23T19:49:11.397Z,5.10
2022-09-23T19:51:39.001Z,6.72
2022-09-23T19:54:07.306Z,4.72
2022-09-23T19:56:34.890Z,8.65
2022-09-23T19:59:05.934Z,7.57
2022-09-23T20:01:34.071Z,8.18
2022-09-23T20:04:01.916Z,5.43
2022-09-23T20:06:30.896Z,6.30
2022-09-23T20:09:01.866Z,6.35
2022-09-23T20:11:30.019Z,4.93
2022-09-23T20:14:03.936Z,4.20
2022-09-23T20:16:34.371Z,7.78
2022-09-23T20:19:03.243Z,6.97
2022-09-23T20:21:30.710Z,3.63
2022-09-23T20:23:58.893Z,3.72
2022-09-23T20:26:44.989Z,4.55
2022-09-23T20:29:12.190Z,8.05
2022-09-23T20:31:41.755Z,8.35
2022-09-23T20:34:10.592Z,4.53
2022-09-23T20:36:40.053Z,6.20
2022-09-23T20:39:07.329Z,4.53
2022-09-23T20:41:37.691Z,5.22
2022-09-23T20:44:14.027Z,6.68
2022-09-23T20:46:47.765Z,5.65
2022-09-23T20:49:16.952Z,8.15
2022-09-23T20:51:44.135Z,7.18
2022-09-23T20:54:12.280Z,8.80
2022-09-23T20:56:39.732Z,9.45
2022-09-23T20:59:06.917Z,7.18
2022-09-23T21:01:36.524Z,5.97
2022-09-23T21:04:06.062Z,8.82
2022-09-23T21:06:35.024Z,3.90
2022-09-23T21:09:02.460Z,6.53
2022-09-23T21:11:30.057Z,5.28
2022-09-23T21:13:58.740Z,4.65
2022-09-23T21:16:26.038Z,7.13
2022-09-23T21:18:53.332Z,9.63
2022-09-23T21:21:22.365Z,7.05
2022-09-23T21:23:50.591Z,6.00
2022-09-23T21:26:23.356Z,5.95
2022-09-23T21:28:53.214Z,5.30
2022-09-23T21:31:23.845Z,6.05
2022-09-23T21:34:14.579Z,3.72
2022-09-23T21:36:43.374Z,6.88
2022-09-23T21:39:11.344Z,3.72
2022-09-23T21:41:39.155Z,4.55
2022-09-23T21:44:08.117Z,4.63
2022-09-23T21:46:36.037Z,5.60
2022-09-23T21:49:04.211Z,4.97
2022-09-23T21:51:36.709Z,8.07
2022-09-23T21:54:04.084Z,5.93
2022-09-23T21:56:35.215Z,6.30
2022-09-23T21:59:02.904Z,3.80
2022-09-23T22:01:36.509Z,5.20
2022-09-23T22:04:13.262Z,6.53
2022-09-23T22:06:40.705Z,3.80
2022-09-23T22:09:14.105Z,5.05
2022-09-23T22:12:00.676Z,5.32
2022-09-23T22:14:28.123Z,4.22
2022-09-23T22:16:57.689Z,2.88
2022-09-23T22:19:27.186Z,7.57
2022-09-23T22:21:55.962Z,6.40
2022-09-23T22:24:23.313Z,3.33
2022-09-23T22:26:50.959Z,4.10
2022-09-23T22:29:36.623Z,4.93
2022-09-23T22:32:24.222Z,5.70
2022-09-23T22:34:52.712Z,9.63
2022-09-23T22:37:26.207Z,4.82
2022-09-23T22:39:53.917Z,6.05
2022-09-23T22:42:22.560Z,5.00
2022-09-23T22:44:51.017Z,4.97
2022-09-23T22:47:19.935Z,8.07
2022-09-23T22:49:47.877Z,8.82
2022-09-23T22:52:21.228Z,4.30
2022-09-23T22:54:48.466Z,6.45
2022-09-23T22:57:15.683Z,7.00
2022-09-23T22:59:48.330Z,5.10
2022-09-23T23:02:20.165Z,4.85
2022-09-23T23:04:48.216Z,6.68
2022-09-23T23:07:20.334Z,7.28
2022-09-23T23:09:49.596Z,7.93
2022-09-23T23:12:19.049Z,8.52
2022-09-23T23:14:47.542Z,9.13
2022-09-23T23:17:14.693Z,5.07
2022-09-23T23:19:41.803Z,8.75
2022-09-23T23:22:08.897Z,12.05
2022-09-23T23:24:35.986Z,9.02
2022-09-23T23:27:03.157Z,7.78
2022-09-23T23:29:30.455Z,8.55
2022-09-23T23:31:57.766Z,5.32
2022-09-23T23:34:24.875Z,5.72
2022-09-23T23:36:56.306Z,9.63
2022-09-23T23:39:25.035Z,5.87
2022-09-23T23:41:56.686Z,4.57
2022-09-23T23:44:25.530Z,6.03
2022-09-23T23:46:53.686Z,6.43
2022-09-23T23:49:21.657Z,8.25
2022-09-23T23:51:49.147Z,5.47
2022-09-23T23:54:16.400Z,7.82
2022-09-23T23:56:43.912Z,5.97
2022-09-23T23:59:11.698Z,5.03
